Time;durP1;ratioP1;P1;durP2;ratioP2;P2;SDS_P1;SDS_P2;PMS_P1;PMS_P2;Temp;Humidity;BMP_temperature;BMP_pressure;BME280_temperature;BME280_humidity;BME280_pressure;Samples;Min_cycle;Max_cycle;Signal;HPM_P1;HPM_P2
2022/11/19 00:01:20;;;;;;;14.10;12.63;;;;;;;;;;5032797;28;20203;-69
2022/11/19 00:03:46;;;;;;;11.50;9.80;;;;;;;;;;5032748;28;20186;-69
2022/11/19 00:06:13;;;;;;;13.13;11.10;;;;;;;;;;5032929;28;20626;-69
2022/11/19 00:08:39;;;;;;;13.90;12.40;;;;;;;;;;5033910;28;20266;-69
2022/11/19 00:11:10;;;;;;;11.83;8.63;;;;;;;;;;5032531;28;20203;-69
2022/11/19 00:13:36;;;;;;;8.43;7.13;;;;;;;;;;5032755;28;20183;-69
2022/11/19 00:16:03;;;;;;;10.67;8.43;;;;;;;;;;5034149;28;20241;-69
2022/11/19 00:18:29;;;;;;;11.03;9.63;;;;;;;;;;5032154;28;20210;-69
2022/11/19 00:20:55;;;;;;;13.93;12.43;;;;;;;;;;5032615;28;20207;-69
2022/11/19 00:23:22;;;;;;;18.43;14.93;;;;;;;;;;5033887;28;20182;-69
2022/11/19 00:25:48;;;;;;;23.87;20.27;;;;;;;;;;5032592;28;20182;-69
2022/11/19 00:28:13;;;;;;;31.47;25.07;;;;;;;;;;5032367;28;20186;-69
2022/11/19 00:30:39;;;;;;;32.17;26.23;;;;;;;;;;5033783;28;20203;-70
2022/11/19 00:33:05;;;;;;;37.03;28.13;;;;;;;;;;5033615;28;20550;-70
2022/11/19 00:35:31;;;;;;;38.03;28.07;;;;;;;;;;5032351;28;20723;-69
2022/11/19 00:37:57;;;;;;;32.20;24.73;;;;;;;;;;5033499;28;20199;-69
2022/11/19 00:40:23;;;;;;;39.03;30.03;;;;;;;;;;5033455;28;20237;-69
2022/11/19 00:45:34;;;;;;;40.03;30.30;;;;;;;;;;5033832;28;20217;-69
2022/11/19 00:48:00;;;;;;;40.07;29.57;;;;;;;;;;5032359;28;20183;-70
2022/11/19 00:50:26;;;;;;;31.83;22.37;;;;;;;;;;5039819;28;20183;-69
2022/11/19 00:52:52;;;;;;;33.03;24.37;;;;;;;;;;5033606;28;20191;-69
2022/11/19 00:55:18;;;;;;;34.87;23.50;;;;;;;;;;5032065;28;20183;-69
2022/11/19 00:57:43;;;;;;;28.97;22.43;;;;;;;;;;5033380;28;20202;-69
2022/11/19 01:00:10;;;;;;;29.03;21.37;;;;;;;;;;5032166;28;20175;-68
2022/11/19 01:02:36;;;;;;;29.87;23.73;;;;;;;;;;5033348;28;20199;-69
2022/11/19 01:05:02;;;;;;;23.50;18.67;;;;;;;;;;5033184;28;20329;-69
2022/11/19 01:07:28;;;;;;;28.60;23.73;;;;;;;;;;5033954;28;20561;-69
2022/11/19 01:09:54;;;;;;;27.50;21.87;;;;;;;;;;5033452;28;20615;-69
2022/11/19 01:12:19;;;;;;;27.57;19.83;;;;;;;;;;5032101;28;20667;-69
2022/11/19 01:14:45;;;;;;;23.77;19.13;;;;;;;;;;5033526;28;20650;-69
2022/11/19 01:17:11;;;;;;;27.03;19.67;;;;;;;;;;5033224;28;20751;-69
2022/11/19 01:19:37;;;;;;;22.13;15.73;;;;;;;;;;5033488;28;20204;-69
2022/11/19 01:22:03;;;;;;;25.13;19.07;;;;;;;;;;5033015;28;20199;-69
2022/11/19 01:24:29;;;;;;;25.80;19.93;;;;;;;;;;5033237;28;20198;-69
2022/11/19 01:26:55;;;;;;;22.67;16.53;;;;;;;;;;5033244;28;20172;-69
2022/11/19 01:29:21;;;;;;;22.73;17.60;;;;;;;;;;5031847;28;20273;-69
2022/11/19 01:31:47;;;;;;;32.20;23.97;;;;;;;;;;5035400;28;20206;-69
2022/11/19 01:34:13;;;;;;;24.60;19.67;;;;;;;;;;5035536;28;20172;-69
2022/11/19 01:36:39;;;;;;;24.47;17.10;;;;;;;;;;5037465;28;20175;-69
2022/11/19 01:39:05;;;;;;;26.73;20.40;;;;;;;;;;5037144;28;20229;-69
2022/11/19 01:41:32;;;;;;;25.10;19.57;;;;;;;;;;5036779;28;20578;-69
2022/11/19 01:44:06;;;;;;;21.50;16.40;;;;;;;;;;5035538;28;20487;-69
2022/11/19 01:46:36;;;;;;;19.20;15.07;;;;;;;;;;5036989;28;20218;-69
2022/11/19 01:49:02;;;;;;;22.40;16.80;;;;;;;;;;5036959;28;20186;-69
2022/11/19 01:51:34;;;;;;;27.07;20.93;;;;;;;;;;5036576;28;20211;-69
2022/11/19 01:54:03;;;;;;;26.47;20.50;;;;;;;;;;5036508;28;20175;-69
2022/11/19 01:56:29;;;;;;;24.73;19.40;;;;;;;;;;5036496;28;20183;-69
2022/11/19 01:58:59;;;;;;;24.33;20.00;;;;;;;;;;5035205;28;20214;-69
2022/11/19 02:01:27;;;;;;;24.27;18.50;;;;;;;;;;5035035;28;20206;-70
2022/11/19 02:03:53;;;;;;;20.33;14.40;;;;;;;;;;5035036;28;20186;-68
2022/11/19 02:06:19;;;;;;;21.37;16.93;;;;;;;;;;5036432;28;20667;-69
2022/11/19 02:08:46;;;;;;;23.73;18.50;;;;;;;;;;5036338;28;20175;-69
2022/11/19 02:11:28;;;;;;;28.23;21.77;;;;;;;;;;5036712;28;20199;-69
2022/11/19 02:14:02;;;;;;;25.27;18.90;;;;;;;;;;5036864;28;20175;-69
2022/11/19 02:16:40;;;;;;;25.67;19.80;;;;;;;;;;5036693;28;20246;-69
2022/11/19 02:19:16;;;;;;;26.70;19.63;;;;;;;;;;5036399;28;20210;-69
2022/11/19 02:22:00;;;;;;;26.50;19.23;;;;;;;;;;5036159;28;20526;-68
2022/11/19 02:24:40;;;;;;;27.57;22.00;;;;;;;;;;5036172;28;20259;-69
2022/11/19 02:27:24;;;;;;;27.90;21.30;;;;;;;;;;5034690;28;20413;-69
2022/11/19 02:29:53;;;;;;;29.67;21.57;;;;;;;;;;5034675;28;20459;-69
2022/11/19 02:32:23;;;;;;;30.57;22.00;;;;;;;;;;5034542;28;20504;-69
2022/11/19 02:34:54;;;;;;;30.00;21.93;;;;;;;;;;5034843;28;20550;-69
2022/11/19 02:37:31;;;;;;;29.87;23.57;;;;;;;;;;5035656;28;20464;-69
2022/11/19 02:40:04;;;;;;;32.37;22.73;;;;;;;;;;5036348;28;20629;-69
2022/11/19 02:42:30;;;;;;;31.50;22.30;;;;;;;;;;5036508;28;20446;-69
2022/11/19 02:45:02;;;;;;;25.63;17.83;;;;;;;;;;5035820;28;20939;-69
2022/11/19 02:47:34;;;;;;;29.90;21.57;;;;;;;;;;5034438;28;20554;-69
2022/11/19 02:50:06;;;;;;;22.90;15.27;;;;;;;;;;5035736;28;20457;-70
2022/11/19 02:52:33;;;;;;;26.70;21.50;;;;;;;;;;5035499;28;20448;-69
2022/11/19 02:54:59;;;;;;;21.63;15.97;;;;;;;;;;5036033;28;20456;-69
2022/11/19 02:57:24;;;;;;;31.47;23.13;;;;;;;;;;5034377;28;20238;-69
2022/11/19 03:05:30;;;;;;;26.90;18.67;;;;;;;;;;5036336;28;20482;-68
2022/11/19 03:07:56;;;;;;;30.63;19.80;;;;;;;;;;5035927;28;20898;-70
2022/11/19 03:10:24;;;;;;;28.23;20.27;;;;;;;;;;5035494;28;20422;-69
2022/11/19 03:12:53;;;;;;;30.97;22.17;;;;;;;;;;5044874;28;20410;-69
2022/11/19 03:18:13;;;;;;;30.37;22.33;;;;;;;;;;5045649;28;20210;-70
2022/11/19 03:20:45;;;;;;;31.13;23.13;;;;;;;;;;5037061;28;20174;-69
2022/11/19 03:23:32;;;;;;;36.47;26.50;;;;;;;;;;5035309;28;20159;-69
2022/11/19 03:26:04;;;;;;;30.20;20.60;;;;;;;;;;5035675;28;20769;-69
2022/11/19 03:28:33;;;;;;;35.63;25.47;;;;;;;;;;5033673;28;20505;-69
2022/11/19 03:31:00;;;;;;;37.70;27.10;;;;;;;;;;5034741;28;20828;-70
2022/11/19 03:33:29;;;;;;;38.47;27.57;;;;;;;;;;5035053;28;20886;-70
2022/11/19 03:36:05;;;;;;;39.30;26.67;;;;;;;;;;5034856;28;20417;-69
2022/11/19 03:38:34;;;;;;;37.83;26.97;;;;;;;;;;5033332;28;20548;-69
2022/11/19 03:41:01;;;;;;;37.63;26.47;;;;;;;;;;5034903;28;20426;-69
2022/11/19 03:43:29;;;;;;;42.97;28.03;;;;;;;;;;5035093;28;20650;-69
2022/11/19 03:45:56;;;;;;;42.20;30.13;;;;;;;;;;5034513;28;20186;-69
2022/11/19 03:48:22;;;;;;;40.50;26.47;;;;;;;;;;5034581;28;20906;-69
2022/11/19 03:50:48;;;;;;;43.23;30.23;;;;;;;;;;5034431;28;20598;-68
2022/11/19 03:53:15;;;;;;;41.43;28.87;;;;;;;;;;5033945;28;20468;-69
2022/11/19 03:55:45;;;;;;;41.20;30.20;;;;;;;;;;5034382;28;20203;-69
2022/11/19 03:58:11;;;;;;;42.03;27.77;;;;;;;;;;5034104;28;20257;-69
2022/11/19 04:00:37;;;;;;;36.73;25.60;;;;;;;;;;5034209;28;20414;-69
2022/11/19 04:03:04;;;;;;;42.47;29.33;;;;;;;;;;5034425;28;20175;-69
2022/11/19 04:05:29;;;;;;;41.60;29.20;;;;;;;;;;5032853;28;20533;-69
2022/11/19 04:07:55;;;;;;;46.77;32.20;;;;;;;;;;5032790;28;20428;-69
2022/11/19 04:10:21;;;;;;;44.07;28.87;;;;;;;;;;5032753;28;20183;-69
2022/11/19 04:12:47;;;;;;;40.50;27.00;;;;;;;;;;5034071;28;20186;-69
2022/11/19 04:15:14;;;;;;;37.10;22.57;;;;;;;;;;5032627;28;20643;-69
2022/11/19 04:17:40;;;;;;;44.40;30.87;;;;;;;;;;5032646;28;20203;-67
2022/11/19 04:20:07;;;;;;;49.43;32.50;;;;;;;;;;5033760;28;20410;-69
2022/11/19 04:22:33;;;;;;;45.77;32.50;;;;;;;;;;5033898;28;20199;-69
2022/11/19 04:24:58;;;;;;;48.77;31.13;;;;;;;;;;5033994;28;20432;-70
2022/11/19 04:27:25;;;;;;;47.73;28.33;;;;;;;;;;5033648;28;20182;-70
2022/11/19 04:29:51;;;;;;;55.23;35.47;;;;;;;;;;5033801;28;20662;-70
2022/11/19 04:32:16;;;;;;;45.30;30.77;;;;;;;;;;5033723;28;20195;-70
2022/11/19 04:34:42;;;;;;;47.80;34.43;;;;;;;;;;5032633;28;20183;-70
2022/11/19 04:37:08;;;;;;;48.63;30.53;;;;;;;;;;5034091;28;20175;-69
2022/11/19 04:39:34;;;;;;;50.17;34.00;;;;;;;;;;5032561;28;20232;-69
2022/11/19 04:42:00;;;;;;;48.10;32.37;;;;;;;;;;5034087;28;20191;-70
2022/11/19 04:44:26;;;;;;;41.87;26.53;;;;;;;;;;5032034;28;20653;-70
2022/11/19 04:46:52;;;;;;;30.93;18.63;;;;;;;;;;5033677;28;20254;-69
2022/11/19 04:49:18;;;;;;;46.97;33.03;;;;;;;;;;5033585;28;20182;-69
2022/11/19 04:51:44;;;;;;;48.60;32.83;;;;;;;;;;5033332;28;20292;-68
2022/11/19 04:54:10;;;;;;;43.50;26.60;;;;;;;;;;5033763;28;20183;-68
2022/11/19 04:56:36;;;;;;;50.17;30.97;;;;;;;;;;5034284;28;20186;-69
2022/11/19 04:59:03;;;;;;;38.90;27.40;;;;;;;;;;5033926;28;20210;-69
2022/11/19 05:01:30;;;;;;;44.23;30.80;;;;;;;;;;5033456;28;20904;-69
2022/11/19 05:03:56;;;;;;;41.57;27.47;;;;;;;;;;5033343;28;20402;-70
2022/11/19 05:06:22;;;;;;;51.00;33.67;;;;;;;;;;5035191;28;20508;-69
2022/11/19 05:08:48;;;;;;;53.87;34.83;;;;;;;;;;5038007;28;20179;-69
2022/11/19 05:11:14;;;;;;;53.67;33.33;;;;;;;;;;5037805;28;20199;-67
2022/11/19 05:13:40;;;;;;;43.57;23.10;;;;;;;;;;5037796;28;20211;-68
2022/11/19 05:16:06;;;;;;;44.20;30.83;;;;;;;;;;5036339;28;20182;-69
2022/11/19 05:18:32;;;;;;;47.63;33.30;;;;;;;;;;5062828;22;20261;-69
2022/11/19 05:20:58;;;;;;;47.47;32.00;;;;;;;;;;5037664;28;20237;-70
2022/11/19 05:23:24;;;;;;;53.77;34.03;;;;;;;;;;5037903;28;20493;-70
2022/11/19 05:25:50;;;;;;;48.40;31.73;;;;;;;;;;5036213;28;20266;-70
2022/11/19 05:28:16;;;;;;;42.63;28.93;;;;;;;;;;5037181;28;20922;-70
2022/11/19 05:30:42;;;;;;;48.77;34.07;;;;;;;;;;5037695;28;20179;-70
2022/11/19 05:33:08;;;;;;;30.43;20.30;;;;;;;;;;5037479;28;20895;-70
2022/11/19 05:35:34;;;;;;;47.27;28.60;;;;;;;;;;5037416;28;20175;-70
2022/11/19 05:38:00;;;;;;;46.70;32.07;;;;;;;;;;5037042;28;20214;-70
2022/11/19 05:40:26;;;;;;;43.20;28.87;;;;;;;;;;5035876;28;20265;-69
2022/11/19 05:42:52;;;;;;;53.33;32.23;;;;;;;;;;5037045;28;20172;-69
2022/11/19 05:45:18;;;;;;;44.70;29.73;;;;;;;;;;5035672;28;20833;-70
2022/11/19 05:47:44;;;;;;;37.93;27.40;;;;;;;;;;5036827;28;20287;-70
2022/11/19 05:50:10;;;;;;;42.70;30.57;;;;;;;;;;5037175;28;20237;-70
2022/11/19 05:52:36;;;;;;;33.20;19.10;;;;;;;;;;5037069;28;20707;-70
2022/11/19 05:55:02;;;;;;;35.70;26.33;;;;;;;;;;5036021;28;20554;-70
2022/11/19 05:57:28;;;;;;;36.90;26.43;;;;;;;;;;5037590;28;20454;-69
2022/11/19 05:59:54;;;;;;;43.07;30.57;;;;;;;;;;5036991;28;20232;-70
2022/11/19 06:02:20;;;;;;;42.73;30.50;;;;;;;;;;5035745;28;20179;-70
2022/11/19 06:04:46;;;;;;;41.17;30.30;;;;;;;;;;5035860;28;20281;-70
2022/11/19 06:07:12;;;;;;;32.10;20.83;;;;;;;;;;5035648;28;20182;-70
2022/11/19 06:09:38;;;;;;;39.93;27.00;;;;;;;;;;5037129;28;20191;-70
2022/11/19 06:12:04;;;;;;;43.93;30.40;;;;;;;;;;5036801;28;20414;-70
2022/11/19 06:14:30;;;;;;;46.07;33.10;;;;;;;;;;5035406;28;20418;-70
2022/11/19 06:16:57;;;;;;;36.13;23.27;;;;;;;;;;5036093;28;20409;-70
2022/11/19 06:19:23;;;;;;;48.90;32.77;;;;;;;;;;5036873;28;20234;-70
2022/11/19 06:21:50;;;;;;;42.53;25.53;;;;;;;;;;5036638;28;20430;-70
2022/11/19 06:24:16;;;;;;;39.13;25.20;;;;;;;;;;5036709;28;20789;-68
2022/11/19 06:26:42;;;;;;;33.70;20.90;;;;;;;;;;5036302;28;20410;-70
2022/11/19 06:29:08;;;;;;;47.20;29.10;;;;;;;;;;5036446;28;20962;-70
2022/11/19 06:31:34;;;;;;;43.50;31.83;;;;;;;;;;5036825;28;20500;-70
2022/11/19 06:34:00;;;;;;;34.43;22.03;;;;;;;;;;5034943;28;20454;-70
2022/11/19 06:36:26;;;;;;;42.10;28.00;;;;;;;;;;5036998;28;20830;-70
2022/11/19 06:38:52;;;;;;;39.17;26.93;;;;;;;;;;5036085;28;20219;-69
2022/11/19 06:41:18;;;;;;;49.53;30.97;;;;;;;;;;5035397;28;20434;-70
2022/11/19 06:43:45;;;;;;;41.23;26.50;;;;;;;;;;5035400;28;20186;-70
2022/11/19 06:46:11;;;;;;;41.80;25.70;;;;;;;;;;5036938;28;20410;-69
2022/11/19 06:48:37;;;;;;;37.83;23.77;;;;;;;;;;5038959;28;20495;-68
2022/11/19 06:51:03;;;;;;;44.80;30.20;;;;;;;;;;5044207;28;20453;-70
2022/11/19 06:53:29;;;;;;;40.33;25.37;;;;;;;;;;5043310;28;20464;-70
2022/11/19 06:55:59;;;;;;;46.47;28.00;;;;;;;;;;5046170;28;20415;-70
2022/11/19 06:58:25;;;;;;;44.33;26.33;;;;;;;;;;5044309;28;20225;-70
2022/11/19 07:00:51;;;;;;;35.23;21.50;;;;;;;;;;5038701;28;20418;-69
2022/11/19 07:03:17;;;;;;;44.43;29.37;;;;;;;;;;5035292;28;20175;-70
2022/11/19 07:05:43;;;;;;;41.00;27.73;;;;;;;;;;5036380;28;20237;-70
2022/11/19 07:08:09;;;;;;;41.83;27.73;;;;;;;;;;5034621;28;20735;-70
2022/11/19 07:10:35;;;;;;;44.97;25.77;;;;;;;;;;5034435;28;20189;-70
2022/11/19 07:13:01;;;;;;;44.17;28.80;;;;;;;;;;5034711;28;20187;-70
2022/11/19 07:15:27;;;;;;;36.33;24.50;;;;;;;;;;5034212;28;20183;-70
2022/11/19 07:17:53;;;;;;;38.97;23.23;;;;;;;;;;5033689;28;21002;-70
2022/11/19 07:20:19;;;;;;;41.67;29.40;;;;;;;;;;5034324;28;20404;-70
2022/11/19 07:22:45;;;;;;;40.43;27.97;;;;;;;;;;5034018;28;20638;-70
2022/11/19 07:25:14;;;;;;;36.83;25.93;;;;;;;;;;5034241;28;20266;-70
2022/11/19 07:27:41;;;;;;;39.93;29.30;;;;;;;;;;5035009;28;20212;-70
2022/11/19 07:30:08;;;;;;;38.37;26.67;;;;;;;;;;5034764;28;20420;-69
2022/11/19 07:32:34;;;;;;;38.50;27.50;;;;;;;;;;5034954;28;20422;-70
2022/11/19 07:35:00;;;;;;;42.90;29.07;;;;;;;;;;5034221;28;20457;-70
2022/11/19 07:37:25;;;;;;;40.13;27.27;;;;;;;;;;5033781;28;20570;-70
2022/11/19 07:39:51;;;;;;;28.43;20.47;;;;;;;;;;5034380;28;20185;-70
2022/11/19 07:45:02;;;;;;;30.60;20.80;;;;;;;;;;5035111;28;20178;-70
2022/11/19 07:47:28;;;;;;;31.60;23.47;;;;;;;;;;5033831;28;20417;-70
2022/11/19 07:49:54;;;;;;;31.03;23.33;;;;;;;;;;5033536;28;20945;-70
2022/11/19 07:52:20;;;;;;;24.20;16.23;;;;;;;;;;5035028;28;20448;-70
2022/11/19 07:54:46;;;;;;;31.77;20.10;;;;;;;;;;5033442;28;20183;-70
2022/11/19 07:57:13;;;;;;;29.77;21.63;;;;;;;;;;5033262;28;20422;-70
2022/11/19 07:59:39;;;;;;;27.13;18.50;;;;;;;;;;5033465;28;20187;-70
2022/11/19 08:02:05;;;;;;;30.30;22.23;;;;;;;;;;5034795;28;20472;-70
2022/11/19 08:04:31;;;;;;;31.00;21.20;;;;;;;;;;5034935;28;20175;-70
2022/11/19 08:06:57;;;;;;;30.90;22.03;;;;;;;;;;5033370;28;20782;-70
2022/11/19 08:09:23;;;;;;;30.83;22.80;;;;;;;;;;5034577;28;20433;-70
2022/11/19 08:11:49;;;;;;;28.80;21.80;;;;;;;;;;5034532;28;20180;-70
2022/11/19 08:14:15;;;;;;;31.43;21.93;;;;;;;;;;5034356;28;20183;-70
2022/11/19 08:19:25;;;;;;;28.33;21.93;;;;;;;;;;5034153;28;20500;-70
2022/11/19 08:21:51;;;;;;;29.63;21.90;;;;;;;;;;5034457;28;20891;-69
2022/11/19 08:24:18;;;;;;;29.63;21.60;;;;;;;;;;5034833;28;20178;-70
2022/11/19 08:26:45;;;;;;;30.27;21.23;;;;;;;;;;5032973;28;20179;-70
2022/11/19 08:29:12;;;;;;;31.93;23.30;;;;;;;;;;5033038;28;20938;-70
2022/11/19 08:31:38;;;;;;;32.47;22.70;;;;;;;;;;5032970;28;20425;-70
2022/11/19 08:34:04;;;;;;;32.07;23.33;;;;;;;;;;5034179;28;20503;-70
2022/11/19 08:36:30;;;;;;;31.53;24.33;;;;;;;;;;5034694;28;20417;-70
2022/11/19 08:38:59;;;;;;;27.27;20.30;;;;;;;;;;5033911;28;20218;-70
2022/11/19 08:44:11;;;;;;;29.97;21.43;;;;;;;;;;5034318;28;20473;-70
2022/11/19 08:46:37;;;;;;;29.87;21.20;;;;;;;;;;5034666;28;20827;-70
2022/11/19 08:49:03;;;;;;;23.20;15.73;;;;;;;;;;5032792;28;20438;-70
2022/11/19 08:51:29;;;;;;;28.43;16.23;;;;;;;;;;5032784;28;20421;-70
2022/11/19 08:53:55;;;;;;;26.70;21.17;;;;;;;;;;5033836;28;20409;-69
2022/11/19 08:56:21;;;;;;;28.93;21.60;;;;;;;;;;5034607;28;20183;-70
2022/11/19 08:58:48;;;;;;;30.30;21.97;;;;;;;;;;5034133;28;20242;-69
2022/11/19 09:01:14;;;;;;;30.33;22.67;;;;;;;;;;5032935;28;20282;-69
2022/11/19 09:03:40;;;;;;;25.57;17.17;;;;;;;;;;5032787;28;20410;-70
2022/11/19 09:06:07;;;;;;;28.00;22.07;;;;;;;;;;5034497;28;20776;-70
2022/11/19 09:08:33;;;;;;;29.50;21.70;;;;;;;;;;5034071;28;20199;-70
2022/11/19 09:10:59;;;;;;;28.03;19.70;;;;;;;;;;5034387;28;20496;-70
2022/11/19 09:13:25;;;;;;;29.43;20.57;;;;;;;;;;5034430;28;20497;-70
2022/11/19 09:15:51;;;;;;;21.00;13.57;;;;;;;;;;5032359;28;20474;-70
2022/11/19 09:18:17;;;;;;;28.33;20.80;;;;;;;;;;5033972;28;20699;-69
2022/11/19 09:20:43;;;;;;;22.37;16.07;;;;;;;;;;5032641;28;20448;-71
2022/11/19 09:23:09;;;;;;;28.10;21.17;;;;;;;;;;5034469;28;20445;-69
2022/11/19 09:25:35;;;;;;;29.20;21.03;;;;;;;;;;5032898;28;20179;-70
2022/11/19 09:28:01;;;;;;;27.17;18.30;;;;;;;;;;5032526;28;20672;-70
2022/11/19 09:30:27;;;;;;;19.93;16.07;;;;;;;;;;5032496;28;20215;-70
2022/11/19 09:32:53;;;;;;;26.27;19.73;;;;;;;;;;5032396;28;20190;-69
2022/11/19 09:35:19;;;;;;;24.40;17.77;;;;;;;;;;5032154;28;20183;-70
2022/11/19 09:37:45;;;;;;;24.67;18.70;;;;;;;;;;5032587;28;20227;-70
2022/11/19 09:40:16;;;;;;;25.43;18.73;;;;;;;;;;5035196;28;20181;-70
2022/11/19 09:42:56;;;;;;;26.93;19.50;;;;;;;;;;5034089;28;20243;-70
2022/11/19 09:45:30;;;;;;;18.90;13.70;;;;;;;;;;5033718;28;20436;-70
2022/11/19 09:48:10;;;;;;;21.30;16.70;;;;;;;;;;5032146;28;20453;-70
2022/11/19 09:50:58;;;;;;;21.33;14.37;;;;;;;;;;5033882;28;20460;-70
2022/11/19 09:53:29;;;;;;;16.67;12.33;;;;;;;;;;5036160;28;20505;-69
2022/11/19 09:55:55;;;;;;;17.67;11.50;;;;;;;;;;5037005;28;20394;-69
2022/11/19 09:58:24;;;;;;;19.10;14.40;;;;;;;;;;5037100;28;20468;-70
2022/11/19 10:00:50;;;;;;;22.63;17.03;;;;;;;;;;5036958;28;20926;-70
2022/11/19 10:03:19;;;;;;;20.47;16.00;;;;;;;;;;5036881;28;20406;-70
2022/11/19 10:05:48;;;;;;;20.40;16.20;;;;;;;;;;5035603;28;20186;-70
2022/11/19 10:08:33;;;;;;;22.77;17.50;;;;;;;;;;5035478;28;20433;-70
2022/11/19 10:11:17;;;;;;;17.80;12.50;;;;;;;;;;5036662;28;20828;-70
2022/11/19 10:13:46;;;;;;;19.93;16.80;;;;;;;;;;5036549;28;20398;-70
2022/11/19 10:16:31;;;;;;;20.40;16.17;;;;;;;;;;5035374;28;20414;-70
2022/11/19 10:19:13;;;;;;;23.40;17.67;;;;;;;;;;5035008;28;20568;-70
2022/11/19 10:21:45;;;;;;;22.10;17.70;;;;;;;;;;5036901;28;20400;-70
2022/11/19 10:24:14;;;;;;;22.10;17.23;;;;;;;;;;5035349;28;20402;-72
2022/11/19 10:26:41;;;;;;;18.53;13.53;;;;;;;;;;5036620;28;20418;-70
2022/11/19 10:29:14;;;;;;;20.63;16.47;;;;;;;;;;5037415;28;20438;-69
2022/11/19 10:31:45;;;;;;;21.03;16.47;;;;;;;;;;5039286;28;20422;-69
2022/11/19 10:34:22;;;;;;;19.37;15.67;;;;;;;;;;5035539;28;20406;-70
2022/11/19 10:36:59;;;;;;;19.50;16.30;;;;;;;;;;5035370;28;20424;-69
2022/11/19 10:39:45;;;;;;;19.80;16.53;;;;;;;;;;5034964;28;20472;-70
2022/11/19 10:42:16;;;;;;;19.50;15.13;;;;;;;;;;5036740;28;20405;-69
2022/11/19 10:44:46;;;;;;;21.87;16.53;;;;;;;;;;5036671;28;20779;-69
2022/11/19 10:47:28;;;;;;;20.63;16.10;;;;;;;;;;5034881;28;20407;-70
2022/11/19 10:49:55;;;;;;;17.80;13.47;;;;;;;;;;5035914;28;20402;-70
2022/11/19 10:52:26;;;;;;;21.33;14.57;;;;;;;;;;5036092;28;20428;-69
2022/11/19 10:54:54;;;;;;;19.30;15.07;;;;;;;;;;5034645;28;20418;-69
2022/11/19 10:57:21;;;;;;;24.40;14.20;;;;;;;;;;5036191;28;20828;-69
2022/11/19 10:59:49;;;;;;;19.73;16.67;;;;;;;;;;5036266;28;20416;-70
2022/11/19 11:02:29;;;;;;;16.57;11.53;;;;;;;;;;5036168;28;20410;-70
2022/11/19 11:05:03;;;;;;;19.47;15.97;;;;;;;;;;5035997;28;20564;-70
2022/11/19 11:07:44;;;;;;;19.40;16.07;;;;;;;;;;5035982;28;20417;-70
2022/11/19 11:10:25;;;;;;;17.27;13.77;;;;;;;;;;5035439;28;20902;-69
2022/11/19 11:15:44;;;;;;;20.87;14.03;;;;;;;;;;5036211;28;20401;-70
2022/11/19 11:18:11;;;;;;;18.23;14.43;;;;;;;;;;5035523;28;20496;-70
2022/11/19 11:20:39;;;;;;;20.10;15.47;;;;;;;;;;5034054;28;20422;-69
2022/11/19 11:23:14;;;;;;;16.50;13.90;;;;;;;;;;5051472;23;20500;-69
2022/11/19 11:25:41;;;;;;;18.77;14.47;;;;;;;;;;5037343;28;20501;-69
2022/11/19 11:28:17;;;;;;;18.03;14.70;;;;;;;;;;5037852;28;20410;-69
2022/11/19 11:30:53;;;;;;;17.43;14.20;;;;;;;;;;5037444;28;20270;-72
2022/11/19 11:33:37;;;;;;;16.37;12.47;;;;;;;;;;5037405;28;20445;-69
2022/11/19 11:36:09;;;;;;;17.77;14.43;;;;;;;;;;5037574;28;20521;-69
2022/11/19 11:38:41;;;;;;;20.47;12.10;;;;;;;;;;5038116;28;20466;-71
2022/11/19 11:41:09;;;;;;;15.17;12.30;;;;;;;;;;5038350;28;20179;-69
2022/11/19 11:43:37;;;;;;;19.60;14.10;;;;;;;;;;5036535;28;20671;-69
2022/11/19 11:46:06;;;;;;;17.60;14.00;;;;;;;;;;5036826;28;20418;-69
2022/11/19 11:48:41;;;;;;;18.27;14.10;;;;;;;;;;5035530;28;20788;-70
2022/11/19 11:51:07;;;;;;;19.00;13.63;;;;;;;;;;5034810;28;20792;-69
2022/11/19 11:53:34;;;;;;;15.93;13.00;;;;;;;;;;5036095;28;20440;-69
2022/11/19 11:56:01;;;;;;;16.27;12.60;;;;;;;;;;5036488;28;20179;-68
2022/11/19 11:58:33;;;;;;;15.77;12.73;;;;;;;;;;5037563;28;20512;-69
2022/11/19 12:01:11;;;;;;;15.53;12.30;;;;;;;;;;5036837;28;20473;-68
2022/11/19 12:03:50;;;;;;;12.23;9.23;;;;;;;;;;5036928;28;20623;-68
2022/11/19 12:06:16;;;;;;;19.07;12.87;;;;;;;;;;5037298;28;20799;-68
2022/11/19 12:08:48;;;;;;;17.40;13.03;;;;;;;;;;5037095;28;20619;-68
2022/11/19 12:11:20;;;;;;;11.53;9.27;;;;;;;;;;5035155;28;20480;-69
2022/11/19 12:14:01;;;;;;;17.10;11.50;;;;;;;;;;5035947;28;20222;-68
2022/11/19 12:16:39;;;;;;;15.07;13.47;;;;;;;;;;5035185;28;20414;-69
2022/11/19 12:19:08;;;;;;;14.17;11.23;;;;;;;;;;5036891;28;20214;-68
2022/11/19 12:21:45;;;;;;;12.47;9.73;;;;;;;;;;5034930;28;20218;-69
2022/11/19 12:24:24;;;;;;;15.10;10.60;;;;;;;;;;5036224;28;20852;-71
2022/11/19 12:27:08;;;;;;;15.60;12.97;;;;;;;;;;5035959;28;20643;-69
2022/11/19 12:29:37;;;;;;;15.10;11.70;;;;;;;;;;5035850;28;20398;-69
2022/11/19 12:32:03;;;;;;;17.10;13.17;;;;;;;;;;5035341;28;20305;-69
2022/11/19 12:34:35;;;;;;;15.47;12.60;;;;;;;;;;5034300;28;20472;-69
2022/11/19 12:37:20;;;;;;;13.20;10.43;;;;;;;;;;5035927;28;20212;-69
2022/11/19 12:39:50;;;;;;;19.33;13.20;;;;;;;;;;5034648;28;20194;-70
2022/11/19 12:42:19;;;;;;;14.43;11.53;;;;;;;;;;5035596;28;20525;-68
2022/11/19 12:45:05;;;;;;;15.77;11.63;;;;;;;;;;5035769;28;20735;-71
2022/11/19 12:47:40;;;;;;;16.03;12.43;;;;;;;;;;5034097;28;20824;-69
2022/11/19 12:50:21;;;;;;;17.57;13.10;;;;;;;;;;5034166;28;20471;-69
2022/11/19 12:52:49;;;;;;;16.20;12.70;;;;;;;;;;5035726;28;20218;-70
2022/11/19 12:55:32;;;;;;;16.77;12.90;;;;;;;;;;5035577;28;20182;-69
2022/11/19 12:58:12;;;;;;;16.93;12.97;;;;;;;;;;5034064;28;20454;-69
2022/11/19 13:00:42;;;;;;;16.47;12.67;;;;;;;;;;5036010;28;20187;-68
2022/11/19 13:03:07;;;;;;;16.53;11.37;;;;;;;;;;5034808;28;20421;-71
2022/11/19 13:05:51;;;;;;;14.67;9.63;;;;;;;;;;5034659;28;20224;-70
2022/11/19 13:08:20;;;;;;;14.27;11.33;;;;;;;;;;5033876;28;20215;-70
2022/11/19 13:11:00;;;;;;;15.20;12.60;;;;;;;;;;5033825;28;20176;-69
2022/11/19 13:13:27;;;;;;;10.30;6.90;;;;;;;;;;5035865;28;20441;-70
2022/11/19 13:16:19;;;;;;;15.37;11.40;;;;;;;;;;5033812;28;20433;-70
2022/11/19 13:18:47;;;;;;;18.93;13.43;;;;;;;;;;5032034;28;20337;-68
2022/11/19 13:21:32;;;;;;;18.03;13.10;;;;;;;;;;5034915;28;20182;-68
2022/11/19 13:46:06;;;;;;;14.70;11.90;;;;;;;;;;6247081;22;1208186;-69
2022/11/19 13:48:38;;;;;;;13.53;10.73;;;;;;;;;;6287586;22;20145;-69
2022/11/19 13:51:08;;;;;;;14.33;11.87;;;;;;;;;;6287532;22;20182;-69
2022/11/19 14:28:45;;;;;;;14.90;11.60;;;;;;;;;;6288537;22;20140;-68
2022/11/19 14:31:12;;;;;;;12.10;9.10;;;;;;;;;;6289142;22;20145;-66
2022/11/19 14:33:47;;;;;;;36.47;25.73;;;;;;;;;;6289132;22;20152;-66
2022/11/19 14:36:16;;;;;;;17.60;12.57;;;;;;;;;;6289088;22;20195;-67
2022/11/19 14:38:56;;;;;;;13.80;10.93;;;;;;;;;;6255576;22;20192;-66
2022/11/19 14:41:26;;;;;;;15.93;11.73;;;;;;;;;;6280626;22;20153;-66
2022/11/19 14:44:09;;;;;;;14.40;10.80;;;;;;;;;;6254774;22;20466;-68
2022/11/19 14:46:36;;;;;;;14.23;11.23;;;;;;;;;;6253676;22;20215;-66
2022/11/19 14:49:03;;;;;;;19.13;13.33;;;;;;;;;;6281024;22;20564;-67
2022/11/19 14:51:31;;;;;;;14.60;10.47;;;;;;;;;;6281126;22;20152;-66
2022/11/19 14:54:12;;;;;;;15.37;12.67;;;;;;;;;;6281245;22;20501;-67
2022/11/19 14:56:39;;;;;;;15.57;11.13;;;;;;;;;;6253551;22;20458;-66
2022/11/19 14:59:28;;;;;;;15.97;10.97;;;;;;;;;;6254319;22;20726;-67
2022/11/19 15:01:53;;;;;;;14.63;11.57;;;;;;;;;;6281274;22;20161;-66
2022/11/19 15:04:21;;;;;;;12.57;10.87;;;;;;;;;;6253343;22;20372;-68
2022/11/19 15:06:47;;;;;;;11.17;9.17;;;;;;;;;;6253058;22;20200;-72
2022/11/19 15:09:13;;;;;;;15.47;12.17;;;;;;;;;;6281176;22;20364;-67
2022/11/19 15:11:59;;;;;;;14.73;10.73;;;;;;;;;;6254940;22;20241;-66
2022/11/19 15:14:28;;;;;;;14.70;10.23;;;;;;;;;;6253885;22;20153;-68
2022/11/19 15:16:55;;;;;;;13.80;10.27;;;;;;;;;;6280712;22;20184;-68
2022/11/19 15:19:33;;;;;;;13.13;9.83;;;;;;;;;;6280876;22;20444;-65
2022/11/19 15:22:16;;;;;;;13.83;11.90;;;;;;;;;;6253801;22;20153;-66
2022/11/19 15:24:48;;;;;;;13.43;10.33;;;;;;;;;;6253927;22;20153;-66
2022/11/19 15:27:23;;;;;;;54.20;34.47;;;;;;;;;;6254830;22;20266;-70
2022/11/19 15:29:51;;;;;;;27.17;16.27;;;;;;;;;;6281241;22;20351;-69
2022/11/19 15:32:25;;;;;;;49.30;34.53;;;;;;;;;;6280674;22;20908;-69
2022/11/19 15:34:51;;;;;;;49.60;33.47;;;;;;;;;;6282110;22;20141;-70
2022/11/19 15:37:18;;;;;;;67.23;40.90;;;;;;;;;;6280996;22;20419;-71
2022/11/19 15:39:47;;;;;;;30.87;21.57;;;;;;;;;;6281735;22;20278;-67
2022/11/19 15:42:16;;;;;;;11.13;9.07;;;;;;;;;;6281599;22;20372;-67
2022/11/19 15:44:45;;;;;;;20.13;15.67;;;;;;;;;;6281277;22;20396;-67
2022/11/19 15:47:32;;;;;;;19.03;13.50;;;;;;;;;;6281188;22;20435;-67
2022/11/19 15:49:58;;;;;;;52.30;38.43;;;;;;;;;;6280041;22;20368;-67